Hauptseite
METAR-TAF:

METAR-TAF

Flughäfen :

Flughafen Wolgograd

Wolgograd, Russland

Breite: 48-47N, Länge: 044-22E, Höhe: 145 m

Beobachtung

Neuester Wetterbericht von vor 44 Minuten, um 15:30 UTC
Wind 14 kt aus Ost
Temperatur -1°C
Luftfeuchtigkeit 31%
Luftdruck 1034 hPa
Sichtweite 10 km oder mehr
keine Wolken unter 1500 m und keine Kumulonimbus oder Gewitterwolken

METAR: URWW 141530Z 10007MPS CAVOK M01/M16 Q1034 R06/010070 NOSIG

Zeit: 19:14 (16:14 UTC)

Prognose

Neuester Wetterbericht von vor 2 Stunden und 16 Minuten, um 13:58 UTC
Gültige Prognose vom 14 um 15 UTC bis 14 um 24 UTC
Wind 12 kt aus Ost, Böen bis zu 21 kt
Sichtweite 10 km oder mehr
Aufgelockert bewölkt in der Höhe von 2000 ft
Zeitweise
vom 14 um 15 UTC bis 14 um 24 UTC
Wind 14 kt aus Ost/Südost, Böen bis zu 25 kt

TAF: URWW 141358Z 1415/1424 09006G11MPS 9999 SCT020 TEMPO 1415/1424 12007G13MPS

Wetterbeobachtungen und Prognosen von mehr als 4000 Flughäfen (METAR und TAF Bericht).

Die verfügbaren Stationen werden durch gelbe und rote Markierungen auf der Karte dargestellt.

Führen Sie die Maus auf sie, um den Namen der Station zu sehen.

Darauf klicken, um die Beobachtung von Wetterbeobachtungen und Prognosen zu sehen.

Um die Karte zu ändern : klicken Sie auf den grünen Tasten mit einem schwarzen Kreuz Zum Vergrößern, auf den grünen Button mit einem Gedankenstrich zu verkleinern, oder auf die grünen Pfeile für benachbarte Karten.


METAR-TAF: